Brooklyn Heights, Ohio
Current Conditions -  °F | °C
As of 4:53 PM on Saturday 20 Dec 2014 (Local Time) from KBKL Reporting Station
Overcast Overcast  
Wind Chill: 27°   Ceiling: 2500
Heat Index: 32°   Visibility: 10mi
Dew Point: 21°   Wind: 5mph
Humidity: 64%   Direction: 260°W
Pressure: 30.27"   Gusts: NA
Location:  41.4454°N, 81.697°W
Report Text: KBKL 202153Z 26004KT 10SM OVC025 00/M06 A3027 RMK AO2 SLP257 T00001061
Loading
Personal Weather Stations






























Interactive Weather Map New forecast layout! Learn more

10-Day Weather Forecast

Advertisements
Track Severe Weather on mobile